Latest Weather Observations for Hunters Hill

IDV60801

Issued at 5:05 pm EST Wednesday 16 April 2014 (issued every 30 minutes, with the page automatically refreshed every 10 minutes)

About weather observations | Map of weather stations | Latest weather observations for VIC | Other Formats
Station Details ID: 082139 Name: HUNTERS HILL Lat: -36.21 Lon: 147.54 Height: 981.0 m
Data from the previous 72 hours. | See also: Recent months at Hunters Hill
Date/Time
EST
Temp
°C
App
Temp
°C
Dew
Point
Rel
Hum
%
Delta-T
°C
Wind Press
QNH
hPa
Press
MSL
hPa
Rain
since 9 am
mm
Dir
 
Spd
km/h
Gust
km/h
Spd
kts
Gust
kts
16/05:00pm 13.2 11.4 7.2 67 3.1 WSW 6 13 3 7 - - 0.0
16/04:30pm 13.4 11.3 6.7 64 3.4 WSW 7 11 4 6 - - 0.0
16/04:00pm 14.3 12.1 6.2 58 4.1 W 7 13 4 7 - - 0.0
16/03:30pm 14.7 12.6 6.8 59 4.1 WSW 7 11 4 6 - - 0.0
16/03:00pm 13.8 11.8 6.9 63 3.5 WSW 7 13 4 7 - - 0.0
16/02:30pm 14.3 12.6 7.4 63 3.6 SW 6 17 3 9 - - 0.0
16/02:00pm 13.9 12.1 8.1 68 3.0 WSW 7 17 4 9 - - 0.0
16/01:30pm 13.4 10.9 6.7 64 3.4 WSW 9 15 5 8 - - 0.0
16/01:00pm 15.2 13.5 7.5 60 4.0 SSW 6 9 3 5 - - 0.0
16/12:30pm 15.2 13.2 7.3 59 4.1 WNW 7 13 4 7 - - 0.0
16/12:00pm 14.9 13.2 8.4 65 3.5 W 7 17 4 9 - - 0.0
16/11:30am 14.3 12.4 7.6 64 3.5 W 7 15 4 8 - - 0.0
16/11:00am 14.3 12.8 8.3 67 3.2 NNW 6 11 3 6 - - 0.0
16/10:30am 13.7 12.5 8.1 69 2.9 SSE 4 9 2 5 - - 0.0
16/10:00am 13.0 12.0 7.2 68 3.0 SSE 2 6 1 3 - - 0.0
16/09:30am 12.9 11.7 6.5 65 3.2 SSE 2 6 1 3 - - 0.0
16/09:00am 12.6 11.4 6.4 66 3.1 SSE 2 6 1 3 - - 0.0
16/08:30am 11.6 9.9 5.7 67 2.9 SSE 4 7 2 4 - - 0.0
16/08:00am 10.6 8.9 5.8 72 2.3 SSE 4 7 2 4 - - 0.0
16/07:30am 8.9 7.8 4.9 76 1.9 CALM 0 2 0 1 - - 0.0
16/07:00am 8.7 7.6 5.1 78 1.7 CALM 0 0 0 0 - - 0.0
16/06:30am 8.4 7.3 5.2 80 1.5 CALM 0 0 0 0 - - 0.0
16/06:00am 8.2 6.8 5.3 82 1.4 SSE 2 2 1 1 - - 0.0
16/05:30am 8.2 6.4 5.5 83 1.3 SSE 4 4 2 2 - - 0.0
16/05:00am 7.8 6.0 5.6 86 1.0 SSE 4 6 2 3 - - 0.0
16/04:30am 8.0 6.3 5.8 86 1.1 SSE 4 6 2 3 - - 0.0
16/04:00am 8.0 5.9 6.0 87 1.0 SSE 6 6 3 3 - - 0.0
16/03:30am 8.1 6.4 6.1 87 1.0 SSE 4 6 2 3 - - 0.0
16/03:00am 8.3 6.6 6.1 86 1.1 SSE 4 7 2 4 - - 0.0
16/02:30am 8.3 6.3 6.3 87 1.0 SSE 6 7 3 4 - - 0.0
16/02:00am 8.5 6.6 6.5 87 1.0 SSE 6 7 3 4 - - 0.0
16/01:30am 8.7 6.8 6.5 86 1.1 SSE 6 7 3 4 - - 0.0
16/01:00am 9.1 7.2 6.5 84 1.3 SSE 6 7 3 4 - - 0.0
16/12:30am 8.9 7.3 6.5 85 1.2 SSE 4 6 2 3 - - 0.0
16/12:00am 9.1 7.1 6.4 83 1.3 SSE 6 7 3 4 - - 0.0
 
Date/Time
EST
Temp
°C
App
Temp
°C
Dew
Point
Rel
Hum
%
Delta-T
°C
Wind Press
QNH
hPa
Press
MSL
hPa
Rain
since 9 am
mm
Dir
 
Spd
km/h
Gust
km/h
Spd
kts
Gust
kts
15/11:30pm 9.0 7.1 6.6 85 1.2 SSE 6 9 3 5 - - 0.0
15/11:00pm 9.3 7.4 6.6 83 1.3 SSE 6 7 3 4 - - 0.0
15/10:30pm 9.7 7.7 6.4 80 1.6 SSE 6 7 3 4 - - 0.0
15/10:00pm 10.0 8.1 6.5 79 1.7 SSE 6 7 3 4 - - 0.0
15/09:30pm 10.4 8.5 6.7 78 1.8 SSE 6 7 3 4 - - 0.0
15/09:00pm 10.2 8.3 6.7 79 1.7 SSE 6 7 3 4 - - 0.0
15/08:30pm 10.7 8.8 6.6 76 2.0 SE 6 11 3 6 - - 0.0
15/08:00pm 10.8 8.9 6.7 76 2.0 S 6 11 3 6 - - 0.0
15/07:30pm 11.2 9.3 6.9 75 2.2 SSE 6 11 3 6 - - 0.0
15/07:00pm 11.2 9.5 7.5 78 1.9 SSE 6 9 3 5 - - 0.0
15/06:30pm 11.0 9.8 7.9 81 1.6 SSE 4 7 2 4 - - 0.0
15/06:00pm 11.4 10.2 8.1 80 1.7 S 4 11 2 6 - - 0.0
15/05:30pm 12.3 11.5 8.2 76 2.1 S 2 7 1 4 - - 0.0
15/05:00pm 14.0 12.9 8.4 69 3.0 S 4 6 2 3 - - 0.0
15/04:30pm 14.3 13.8 7.8 65 3.4 CALM 0 0 0 0 - - 0.0
15/04:00pm 15.2 14.2 5.4 52 4.9 CALM 0 0 0 0 - - 0.0
15/03:30pm 16.4 14.9 4.8 46 5.8 ESE 2 4 1 2 - - 0.0
15/03:00pm 16.2 14.6 4.6 46 5.8 ESE 2 4 1 2 - - 0.0
15/02:30pm 16.1 14.1 4.2 45 5.9 ESE 4 6 2 3 - - 0.0
15/02:00pm 16.4 14.9 5.1 47 5.7 ESE 2 4 1 2 - - 0.0
15/01:30pm 16.0 14.3 5.9 51 5.1 S 4 7 2 4 - - 0.0
15/01:00pm 16.1 14.5 6.3 52 5.0 E 4 11 2 6 - - 0.0
15/12:30pm 15.4 13.2 3.5 45 5.7 E 4 7 2 4 - - 0.0
15/12:00pm 15.7 13.8 5.0 49 5.3 E 4 9 2 5 - - 0.0
15/11:30am 14.9 12.8 4.0 48 5.3 SE 4 9 2 5 - - 0.0
15/11:00am 15.1 13.2 4.8 50 5.1 SE 4 7 2 4 - - 0.0
15/10:30am 13.4 11.2 3.5 51 4.7 SE 4 9 2 5 - - 0.0
15/10:00am 13.0 10.7 4.7 57 4.0 SE 6 7 3 4 - - 0.0
15/09:30am 12.4 10.4 4.6 59 3.8 SE 4 7 2 4 - - 0.0
15/09:00am 11.3 9.2 4.1 61 3.4 SE 4 7 2 4 - - 0.0
15/08:30am 10.8 8.3 4.0 63 3.2 SE 6 7 3 4 - - 0.0
15/08:00am 8.3 6.1 3.4 71 2.2 SE 4 6 2 3 - - 0.0
15/07:30am 7.9 5.6 2.8 70 2.3 SE 4 4 2 2 - - 0.0
15/07:00am 6.7 4.4 2.8 76 1.7 SE 4 4 2 2 - - 0.0
15/06:30am 6.4 4.1 3.0 79 1.5 SE 4 6 2 3 - - 0.0
15/06:00am 6.2 3.6 3.2 81 1.3 SE 6 7 3 4 - - 0.0
15/05:30am 6.3 4.0 2.9 79 1.5 SE 4 6 2 3 - - 0.0
15/05:00am 6.4 4.1 3.0 79 1.5 SE 4 6 2 3 - - 0.0
15/04:30am 6.7 4.5 3.1 78 1.6 SE 4 7 2 4 - - 0.0
15/04:00am 7.0 4.8 3.1 76 1.7 SE 4 7 2 4 - - 0.0
15/03:30am 7.3 5.1 3.4 76 1.8 SE 4 9 2 5 - - 0.0
15/03:00am 7.2 5.0 3.4 77 1.7 SE 4 7 2 4 - - 0.0
15/02:30am 7.1 4.9 3.5 78 1.6 SE 4 7 2 4 - - 0.0
15/02:00am 7.3 4.8 3.5 77 1.7 SE 6 11 3 6 - - 0.0
15/01:30am 7.6 5.4 3.6 76 1.8 SE 4 7 2 4 - - 0.0
15/01:00am 7.5 5.0 3.6 76 1.8 SE 6 7 3 4 - - 0.0
15/12:30am 7.5 5.0 3.7 77 1.7 SE 6 7 3 4 - - 0.0
15/12:00am 7.7 5.2 3.7 76 1.8 SE 6 9 3 5 - - 0.0
 
Date/Time
EST
Temp
°C
App
Temp
°C
Dew
Point
Rel
Hum
%
Delta-T
°C
Wind Press
QNH
hPa
Press
MSL
hPa
Rain
since 9 am
mm
Dir
 
Spd
km/h
Gust
km/h
Spd
kts
Gust
kts
14/11:30pm 8.0 5.5 3.7 74 2.0 SE 6 9 3 5 - - 0.0
14/11:00pm 8.2 5.7 4.0 75 1.9 SE 6 9 3 5 - - 0.0
14/10:30pm 8.5 6.1 4.1 74 2.0 SSE 6 9 3 5 - - 0.0
14/10:00pm 8.3 5.9 4.3 76 1.9 SSE 6 7 3 4 - - 0.0
14/09:30pm 8.4 5.9 4.0 74 2.0 SSE 6 9 3 5 - - 0.0
14/09:00pm 8.7 6.3 4.1 73 2.1 SE 6 9 3 5 - - 0.0
14/08:30pm 8.9 6.3 4.1 72 2.2 SSE 7 13 4 7 - - 0.0
14/08:00pm 9.0 6.4 4.4 73 2.2 S 7 13 4 7 - - 0.0
14/07:30pm 9.3 6.8 4.5 72 2.3 SSE 7 13 4 7 - - 0.0
14/07:00pm 9.4 7.1 5.0 74 2.1 S 6 11 3 6 - - 0.0
14/06:30pm 9.4 7.7 5.8 78 1.7 S 4 7 2 4 - - 0.0
14/06:00pm 9.9 8.7 6.4 79 1.7 SSE 2 4 1 2 - - 0.0
14/05:30pm 11.3 10.2 6.8 74 2.3 SSE 2 4 1 2 - - 0.0
14/05:00pm 13.0 11.5 7.0 67 3.1 SSE 4 6 2 3 - - 0.0
14/04:30pm 14.2 12.6 6.3 59 4.0 NE 4 7 2 4 - - 0.0
14/04:00pm 14.7 13.6 6.8 59 4.1 NE 2 7 1 4 - - 0.0
14/03:30pm 14.7 13.2 5.2 53 4.7 NE 2 6 1 3 - - 0.0
14/03:00pm 15.7 14.5 6.4 54 4.8 NE 2 4 1 2 - - 0.0
14/02:30pm 14.7 13.0 5.8 55 4.5 NE 4 9 2 5 - - 0.0
14/02:00pm 15.2 13.1 4.0 47 5.5 NE 4 7 2 4 - - 0.0
14/01:30pm 16.4 14.8 6.5 52 5.1 NE 4 7 2 4 - - 0.0
14/01:00pm 13.5 11.3 3.6 51 4.7 NE 4 7 2 4 - - 0.0
14/12:30pm 13.9 11.6 2.8 47 5.2 NNE 4 7 2 4 - - 0.0
14/12:00pm 15.0 13.4 6.3 56 4.4 NNE 4 9 2 5 - - 0.0
14/11:30am 13.6 11.6 4.2 53 4.5 SSE 4 11 2 6 - - 0.0
14/11:00am 14.1 12.5 6.5 60 3.9 SSE 4 7 2 4 - - 0.0
14/10:30am 12.7 10.4 4.9 59 3.8 E 6 9 3 5 - - 0.0
14/10:00am 11.9 9.5 5.1 63 3.3 ESE 7 11 4 6 - - 0.0
14/09:30am 11.5 9.2 5.6 67 2.9 SE 7 11 4 6 - - 0.0
14/09:00am 10.6 8.2 5.2 69 2.6 SE 7 19 4 10 - - 0.0
14/08:30am 9.5 6.9 4.3 70 2.4 SSE 7 15 4 8 - - 0.0
14/08:00am 8.4 5.7 3.5 71 2.2 SSE 7 13 4 7 - - 0.0
14/07:30am 7.2 4.4 2.9 74 1.9 SE 7 13 4 7 - - 0.0
14/07:00am 6.7 3.8 2.4 74 1.9 SSE 7 15 4 8 - - 0.0
14/06:30am 6.4 3.1 2.3 75 1.8 SSE 9 17 5 9 - - 0.0
14/06:00am 6.5 3.5 2.2 74 1.9 SE 7 13 4 7 - - 0.0
14/05:30am 6.6 3.6 2.1 73 2.0 SSE 7 13 4 7 - - 0.0
14/05:00am 6.7 3.7 2.2 73 2.0 SE 7 15 4 8 - - 0.0
14/04:30am 6.8 3.9 2.7 75 1.8 SSE 7 11 4 6 - - 0.0
14/04:00am 6.9 4.2 2.8 75 1.8 SSE 6 11 3 6 - - 0.0
14/03:30am 7.0 4.4 3.1 76 1.7 SSE 6 11 3 6 - - 0.0
14/03:00am 7.3 4.6 3.7 78 1.6 SSE 7 13 4 7 - - 0.0
14/02:30am 7.4 4.5 4.4 81 1.4 SSE 9 17 5 9 - - 0.0
14/02:00am 7.6 5.1 4.9 83 1.3 SE 7 15 4 8 - - 0.0
14/01:30am 7.6 5.3 5.6 87 1.0 SE 7 15 4 8 - - 0.0
14/01:00am 7.6 5.3 5.7 88 0.9 E 7 13 4 7 - - 0.0
14/12:30am 8.1 5.8 5.7 85 1.1 E 7 11 4 6 - - 0.0
14/12:00am 8.4 6.3 5.9 84 1.2 ESE 6 11 3 6 - - 0.0
 
Date/Time
EST
Temp
°C
App
Temp
°C
Dew
Point
Rel
Hum
%
Delta-T
°C
Wind Press
QNH
hPa
Press
MSL
hPa
Rain
since 9 am
mm
Dir
 
Spd
km/h
Gust
km/h
Spd
kts
Gust
kts
13/11:30pm 8.8 6.6 6.3 84 1.2 ESE 7 11 4 6 - - 0.0
13/11:00pm 9.1 7.0 6.7 85 1.2 SE 7 11 4 6 - - 0.0
13/10:30pm 9.0 7.1 6.8 86 1.1 SE 6 9 3 5 - - 0.0
13/10:00pm 9.6 7.2 6.9 83 1.3 SSE 9 19 5 10 - - 0.0
13/09:30pm 9.8 7.8 6.9 82 1.4 SSE 7 15 4 8 - - 0.0
13/09:00pm 9.9 8.1 7.2 83 1.4 ESE 6 9 3 5 - - 0.0
13/08:30pm 10.4 8.6 7.3 81 1.6 SE 6 9 3 5 - - 0.0
13/08:00pm 11.1 9.3 7.0 76 2.1 SSE 6 13 3 7 - - 0.0
13/07:30pm 11.5 9.7 7.0 74 2.3 SSE 6 17 3 9 - - 0.0
13/07:00pm 12.1 10.3 7.2 72 2.5 S 6 13 3 7 - - 0.0
13/06:30pm 12.3 10.3 7.2 71 2.6 SSE 7 15 4 8 - - 0.0
13/06:00pm 12.4 10.6 7.1 70 2.7 ESE 6 13 3 7 - - 0.0
13/05:30pm 12.8 11.3 7.0 68 3.0 S 4 9 2 5 - - 0.0

Other Formats:

Comma delimited format used in spreadsheet applications
http://www.bom.gov.au/fwo/IDV60801/IDV60801.94878.axf

JavaScript Object Notation format (JSON) in row-major order
http://www.bom.gov.au/fwo/IDV60801/IDV60801.94878.json